Time;durP1;ratioP1;P1;durP2;ratioP2;P2;SDS_P1;SDS_P2;PMS_P1;PMS_P2;Temp;Humidity;BMP_temperature;BMP_pressure;BME280_temperature;BME280_humidity;BME280_pressure;Samples;Min_cycle;Max_cycle;Signal;HPM_P1;HPM_P2
2023/02/03 00:02:06;;;;;;;22.58;13.80;;;7.30;99.90;;;;;;5078563;28;25087;-72
2023/02/03 00:04:33;;;;;;;22.55;11.98;;;7.30;99.90;;;;;;5078788;28;25114;-72
2023/02/03 00:07:00;;;;;;;28.65;14.38;;;7.40;99.90;;;;;;5077616;28;25110;-72
2023/02/03 00:09:27;;;;;;;21.10;12.55;;;7.40;99.90;;;;;;5079187;28;25098;-72
2023/02/03 00:11:55;;;;;;;18.88;10.88;;;7.40;99.90;;;;;;5078695;28;25128;-72
2023/02/03 00:14:22;;;;;;;27.83;10.98;;;7.50;99.90;;;;;;5079307;28;25126;-72
2023/02/03 00:16:50;;;;;;;21.55;12.02;;;7.50;99.90;;;;;;5078504;28;25056;-72
2023/02/03 00:19:17;;;;;;;21.75;11.88;;;7.60;99.90;;;;;;5078790;28;25072;-72
2023/02/03 00:21:44;;;;;;;22.52;11.70;;;7.60;99.90;;;;;;5078427;28;25061;-72
2023/02/03 00:24:11;;;;;;;19.25;12.27;;;7.60;99.90;;;;;;5078543;28;25089;-72
2023/02/03 00:26:45;;;;;;;22.38;12.45;;;7.60;99.90;;;;;;5078837;28;25156;-72
2023/02/03 00:29:13;;;;;;;25.10;12.13;;;7.60;99.90;;;;;;5076914;28;25076;-72
2023/02/03 00:31:40;;;;;;;20.42;12.27;;;7.60;99.90;;;;;;5078790;28;25068;-72
2023/02/03 00:34:07;;;;;;;21.05;12.35;;;7.60;99.90;;;;;;5078868;28;25057;-72
2023/02/03 00:36:36;;;;;;;18.90;10.73;;;7.60;99.90;;;;;;5078175;28;25102;-72
2023/02/03 00:39:03;;;;;;;21.10;10.65;;;7.60;99.90;;;;;;5077046;28;25133;-72
2023/02/03 00:41:31;;;;;;;17.88;10.65;;;7.60;99.90;;;;;;5078062;28;25068;-72
2023/02/03 00:43:58;;;;;;;24.50;11.60;;;7.60;99.90;;;;;;5077365;28;25082;-72
2023/02/03 00:46:25;;;;;;;22.92;10.98;;;7.60;99.90;;;;;;5078466;28;25053;-72
2023/02/03 00:48:53;;;;;;;19.48;11.30;;;7.60;99.90;;;;;;5076732;28;25157;-72
2023/02/03 00:51:20;;;;;;;22.63;11.65;;;7.60;99.90;;;;;;5076711;28;25076;-72
2023/02/03 00:53:48;;;;;;;24.05;11.40;;;7.60;99.90;;;;;;5078503;28;25105;-72
2023/02/03 00:56:15;;;;;;;19.00;10.88;;;7.70;99.90;;;;;;5076587;28;25156;-72
2023/02/03 00:58:43;;;;;;;21.77;12.00;;;7.60;99.90;;;;;;5078299;28;25060;-72
2023/02/03 01:01:10;;;;;;;23.40;11.88;;;7.70;99.90;;;;;;5076532;28;25113;-72
2023/02/03 01:03:37;;;;;;;20.05;12.20;;;7.60;99.90;;;;;;5077615;28;25079;-72
2023/02/03 01:06:17;;;;;;;22.20;10.77;;;7.60;99.90;;;;;;5077824;28;25053;-72
2023/02/03 01:08:45;;;;;;;24.45;13.20;;;7.60;99.90;;;;;;5077431;28;25073;-72
2023/02/03 01:11:17;;;;;;;19.33;11.38;;;7.60;99.90;;;;;;5077391;28;25091;-72
2023/02/03 01:13:44;;;;;;;17.58;10.65;;;7.60;99.90;;;;;;5075146;28;25073;-72
2023/02/03 01:16:14;;;;;;;21.65;12.68;;;7.60;99.90;;;;;;5077855;28;25104;-72
2023/02/03 01:18:42;;;;;;;21.60;12.43;;;7.60;99.90;;;;;;5076193;28;25076;-72
2023/02/03 01:21:15;;;;;;;23.48;13.07;;;7.70;99.90;;;;;;5076535;28;25071;-72
2023/02/03 01:23:43;;;;;;;24.25;12.80;;;7.60;99.90;;;;;;5077232;28;25065;-72
2023/02/03 01:26:16;;;;;;;19.13;12.23;;;7.70;99.90;;;;;;5077079;28;25100;-72
2023/02/03 01:28:43;;;;;;;24.92;12.65;;;7.70;99.90;;;;;;5069734;28;25091;-72
2023/02/03 01:31:14;;;;;;;21.50;13.05;;;7.70;99.90;;;;;;5057633;28;25092;-72
2023/02/03 01:33:45;;;;;;;20.60;11.27;;;7.70;99.90;;;;;;5057038;28;25053;-72
2023/02/03 01:36:16;;;;;;;20.13;11.50;;;7.60;99.90;;;;;;5056920;28;25091;-72
2023/02/03 01:38:45;;;;;;;26.27;10.30;;;7.70;99.90;;;;;;5057093;28;25078;-72
2023/02/03 01:41:16;;;;;;;23.27;12.00;;;7.70;99.90;;;;;;5039101;28;25159;-72
2023/02/03 01:43:47;;;;;;;20.27;11.93;;;7.70;99.90;;;;;;5039493;28;25129;-72
2023/02/03 01:46:33;;;;;;;17.25;11.57;;;7.70;99.90;;;;;;5039038;28;25074;-72
2023/02/03 01:49:20;;;;;;;19.15;11.93;;;7.70;99.90;;;;;;5057422;28;25069;-72
2023/02/03 01:51:49;;;;;;;20.05;11.82;;;7.70;99.90;;;;;;5039002;28;25105;-72
2023/02/03 01:54:30;;;;;;;21.45;10.90;;;7.70;99.90;;;;;;5056690;28;25077;-72
2023/02/03 01:57:03;;;;;;;17.17;10.30;;;7.70;99.90;;;;;;5056643;28;25064;-72
2023/02/03 01:59:32;;;;;;;16.60;10.38;;;7.70;99.90;;;;;;5057040;28;25130;-72
2023/02/03 02:02:00;;;;;;;17.02;11.95;;;7.70;99.90;;;;;;5056534;28;25087;-72
2023/02/03 02:04:43;;;;;;;18.38;11.88;;;7.70;99.90;;;;;;5056534;28;25069;-72
2023/02/03 02:07:11;;;;;;;23.48;12.70;;;7.60;99.90;;;;;;5038738;28;25079;-72
2023/02/03 02:09:39;;;;;;;20.05;12.73;;;7.60;99.90;;;;;;5056543;28;25059;-72
2023/02/03 02:12:08;;;;;;;23.63;11.88;;;7.50;99.90;;;;;;5038579;28;25071;-72
2023/02/03 02:14:35;;;;;;;25.23;12.95;;;7.50;99.90;;;;;;5056951;28;25101;-72
2023/02/03 02:17:09;;;;;;;23.55;12.75;;;7.50;99.90;;;;;;5056635;28;25075;-72
2023/02/03 02:19:54;;;;;;;23.67;12.88;;;7.50;99.90;;;;;;5057038;28;25103;-72
2023/02/03 02:22:38;;;;;;;23.08;14.30;;;7.50;99.90;;;;;;5038475;28;25073;-72
2023/02/03 02:25:51;;;;;;;22.45;13.05;;;7.50;99.90;;;;;;5055932;28;25072;-72
2023/02/03 02:28:49;;;;;;;28.65;12.48;;;7.50;99.90;;;;;;5056235;28;25125;-72
2023/02/03 02:31:37;;;;;;;18.73;12.52;;;7.50;99.90;;;;;;5056733;28;25060;-72
2023/02/03 02:34:49;;;;;;;18.45;11.48;;;7.50;99.90;;;;;;5038445;28;25068;-72
2023/02/03 02:37:35;;;;;;;23.92;11.35;;;7.50;99.90;;;;;;4995127;28;25081;-72
2023/02/03 02:40:21;;;;;;;23.08;12.43;;;7.50;99.90;;;;;;5052204;28;25179;-72
2023/02/03 02:42:48;;;;;;;27.70;13.45;;;7.50;99.90;;;;;;5056658;28;25061;-72
2023/02/03 02:45:25;;;;;;;18.30;11.18;;;7.50;99.90;;;;;;5056632;28;25103;-72
2023/02/03 02:48:01;;;;;;;17.75;10.77;;;7.50;99.90;;;;;;5056018;28;25054;-72
2023/02/03 02:50:35;;;;;;;15.82;9.65;;;7.50;99.90;;;;;;5056228;28;25163;-72
2023/02/03 02:53:04;;;;;;;18.05;9.65;;;7.50;99.90;;;;;;5056530;28;25099;-72
2023/02/03 02:55:34;;;;;;;17.23;10.65;;;7.60;99.90;;;;;;5038259;28;25066;-72
2023/02/03 02:58:07;;;;;;;18.20;10.80;;;7.60;99.90;;;;;;5038290;28;25120;-72
2023/02/03 03:00:36;;;;;;;20.75;10.57;;;7.60;99.90;;;;;;5056157;28;25104;-72
2023/02/03 03:03:17;;;;;;;20.95;11.45;;;7.60;99.90;;;;;;5038244;28;25094;-72
2023/02/03 03:06:08;;;;;;;19.33;10.10;;;7.70;99.90;;;;;;5038173;28;25078;-72
2023/02/03 03:08:40;;;;;;;13.50;7.22;;;7.70;99.90;;;;;;5038161;28;25087;-72
2023/02/03 03:11:08;;;;;;;19.83;9.90;;;7.70;99.90;;;;;;5056312;28;25084;-72
2023/02/03 03:13:42;;;;;;;14.15;8.63;;;7.80;99.90;;;;;;5055814;28;25050;-72
2023/02/03 03:16:12;;;;;;;18.48;9.52;;;7.80;99.90;;;;;;5038076;28;25047;-72
2023/02/03 03:19:02;;;;;;;15.98;8.57;;;7.80;99.90;;;;;;5055759;28;25135;-72
2023/02/03 03:21:49;;;;;;;16.98;8.27;;;7.80;99.90;;;;;;5038080;28;25094;-72
2023/02/03 03:24:45;;;;;;;;;;;7.80;99.90;;;;;;5038486;28;25425;-72
2023/02/03 03:27:29;;;;;;;15.93;8.68;;;7.80;99.90;;;;;;5034404;28;25132;-72
2023/02/03 03:30:02;;;;;;;19.50;8.98;;;7.80;99.90;;;;;;5055616;28;25062;-72
2023/02/03 03:32:31;;;;;;;13.27;7.78;;;7.80;99.90;;;;;;5055631;28;25068;-72
2023/02/03 03:35:00;;;;;;;18.52;8.90;;;7.80;99.90;;;;;;5055544;28;25072;-72
2023/02/03 03:37:52;;;;;;;17.05;8.93;;;7.80;99.90;;;;;;5041558;28;25069;-72
2023/02/03 03:40:27;;;;;;;17.70;10.43;;;7.80;99.90;;;;;;5059108;28;25130;-72
2023/02/03 03:43:08;;;;;;;14.07;7.53;;;7.80;99.90;;;;;;5059445;28;25068;-72
2023/02/03 03:46:04;;;;;;;19.58;9.85;;;7.80;99.90;;;;;;5059368;28;25045;-72
2023/02/03 03:48:52;;;;;;;15.18;8.07;;;7.80;99.90;;;;;;5058904;28;25058;-72
2023/02/03 03:51:42;;;;;;;15.50;7.95;;;7.80;99.90;;;;;;5059499;28;25078;-72
2023/02/03 03:54:15;;;;;;;17.98;7.75;;;7.80;99.90;;;;;;5058844;28;25074;-72
2023/02/03 03:57:02;;;;;;;18.38;8.52;;;7.80;99.90;;;;;;5058774;28;25070;-72
2023/02/03 03:59:33;;;;;;;14.73;8.55;;;7.80;99.90;;;;;;5059039;28;25098;-72
2023/02/03 04:02:03;;;;;;;16.55;7.50;;;7.80;99.90;;;;;;5059302;28;25048;-72
2023/02/03 04:04:33;;;;;;;12.77;7.10;;;7.80;99.90;;;;;;5058666;28;25067;-72
2023/02/03 04:07:00;;;;;;;11.45;6.78;;;7.80;99.90;;;;;;5058659;28;25073;-72
2023/02/03 04:09:27;;;;;;;17.27;8.25;;;7.80;99.90;;;;;;5059004;28;25107;-72
2023/02/03 04:12:02;;;;;;;16.30;7.50;;;7.80;99.90;;;;;;5058415;28;25137;-72
2023/02/03 04:14:31;;;;;;;11.57;6.18;;;7.80;99.90;;;;;;5058577;28;25072;-72
2023/02/03 04:16:59;;;;;;;14.32;6.78;;;7.80;99.90;;;;;;5059055;28;25096;-72
2023/02/03 04:19:26;;;;;;;16.25;7.47;;;7.90;99.90;;;;;;5040895;28;25085;-72
2023/02/03 04:21:54;;;;;;;21.27;8.48;;;7.90;99.90;;;;;;5058374;28;25056;-72
2023/02/03 04:24:22;;;;;;;12.43;6.60;;;7.90;99.90;;;;;;5040668;28;25103;-72
2023/02/03 04:26:49;;;;;;;13.60;5.82;;;7.80;99.90;;;;;;5058298;28;25040;-72
2023/02/03 04:29:17;;;;;;;10.73;7.38;;;7.80;99.90;;;;;;5058300;28;25144;-72
2023/02/03 04:31:44;;;;;;;25.05;7.75;;;7.80;99.90;;;;;;5058204;28;25107;-72
2023/02/03 04:34:11;;;;;;;13.90;5.90;;;7.90;99.90;;;;;;5058724;28;25093;-72
2023/02/03 04:36:39;;;;;;;16.40;6.82;;;7.90;99.90;;;;;;5058648;28;25056;-72
2023/02/03 04:39:07;;;;;;;10.85;5.85;;;7.90;99.90;;;;;;5058286;28;25057;-72
2023/02/03 04:41:34;;;;;;;10.48;6.60;;;7.90;99.90;;;;;;5058188;28;25081;-72
2023/02/03 04:44:01;;;;;;;10.55;6.25;;;7.90;99.90;;;;;;5023885;28;25044;-72
2023/02/03 04:46:28;;;;;;;13.63;5.80;;;7.90;99.90;;;;;;5057944;28;25062;-72
2023/02/03 04:48:56;;;;;;;16.38;6.88;;;7.90;99.90;;;;;;5057956;28;25085;-72
2023/02/03 04:51:23;;;;;;;13.82;5.35;;;7.90;99.90;;;;;;5040144;28;25075;-72
2023/02/03 04:53:50;;;;;;;8.45;4.53;;;7.90;99.90;;;;;;5040133;28;25063;-72
2023/02/03 04:56:18;;;;;;;13.05;6.35;;;7.90;99.90;;;;;;5058250;28;25076;-72
2023/02/03 04:58:45;;;;;;;12.38;5.60;;;7.90;99.90;;;;;;5057744;28;25059;-72
2023/02/03 05:01:12;;;;;;;14.07;6.35;;;7.90;99.90;;;;;;5057685;28;25129;-72
2023/02/03 05:03:39;;;;;;;13.50;6.50;;;7.90;99.90;;;;;;5058331;28;25078;-72
2023/02/03 05:06:06;;;;;;;12.13;5.78;;;8.00;99.90;;;;;;5058093;28;25064;-72
2023/02/03 05:08:33;;;;;;;11.63;4.60;;;8.00;99.90;;;;;;5039832;28;25052;-72
2023/02/03 05:11:00;;;;;;;8.27;4.20;;;7.90;99.90;;;;;;5040160;28;25077;-72
2023/02/03 05:13:28;;;;;;;8.32;5.45;;;7.90;99.90;;;;;;5039745;28;25061;-72
2023/02/03 05:15:55;;;;;;;8.10;4.70;;;7.90;99.90;;;;;;5039726;28;25117;-72
2023/02/03 05:18:23;;;;;;;10.38;5.90;;;7.90;99.90;;;;;;5057485;28;25107;-72
2023/02/03 05:20:50;;;;;;;13.43;5.47;;;7.90;99.90;;;;;;5039491;28;25061;-72
2023/02/03 05:23:18;;;;;;;17.50;5.75;;;7.90;99.90;;;;;;5057792;28;25130;-72
2023/02/03 05:25:45;;;;;;;10.15;5.57;;;7.90;99.90;;;;;;5039387;28;25135;-72
2023/02/03 05:28:12;;;;;;;11.27;5.10;;;7.90;99.90;;;;;;5057486;28;25116;-72
2023/02/03 05:30:40;;;;;;;12.07;4.70;;;7.90;99.90;;;;;;5057373;28;25121;-72
2023/02/03 05:33:07;;;;;;;16.38;5.80;;;7.90;99.90;;;;;;5057031;28;25064;-72
2023/02/03 05:35:34;;;;;;;11.43;4.95;;;7.90;99.90;;;;;;5057572;28;25119;-72
2023/02/03 05:38:02;;;;;;;13.25;5.75;;;8.00;99.90;;;;;;5057526;28;25057;-72
2023/02/03 05:43:15;;;;;;;11.25;4.70;;;8.00;99.90;;;;;;5057439;28;25049;-72
2023/02/03 05:45:43;;;;;;;11.20;5.80;;;8.00;99.90;;;;;;5056893;28;25080;-72
2023/02/03 05:48:11;;;;;;;7.93;4.40;;;7.90;99.90;;;;;;5056683;28;25097;-72
2023/02/03 05:50:38;;;;;;;15.10;5.45;;;7.80;99.90;;;;;;5039148;28;25092;-72
2023/02/03 05:53:06;;;;;;;11.57;5.15;;;7.80;99.90;;;;;;5038971;28;25102;-72
2023/02/03 05:55:35;;;;;;;8.88;4.90;;;7.70;99.90;;;;;;5057166;28;25058;-72
2023/02/03 05:58:02;;;;;;;10.18;4.72;;;7.70;99.90;;;;;;5038573;28;25115;-72
2023/02/03 06:00:29;;;;;;;15.35;6.00;;;7.70;99.90;;;;;;5056757;28;25084;-72
2023/02/03 06:02:59;;;;;;;9.32;6.05;;;7.70;99.90;;;;;;5056555;28;25119;-72
2023/02/03 06:05:27;;;;;;;10.85;5.45;;;7.70;99.90;;;;;;5056520;28;25085;-72
2023/02/03 06:07:55;;;;;;;13.02;5.55;;;7.70;99.90;;;;;;5056371;28;25078;-72
2023/02/03 06:10:22;;;;;;;14.38;6.38;;;7.70;99.90;;;;;;5056782;28;25079;-72
2023/02/03 06:12:51;;;;;;;12.52;5.53;;;7.80;99.90;;;;;;5038716;28;25127;-72
2023/02/03 06:15:18;;;;;;;11.20;5.65;;;7.80;99.90;;;;;;5038656;28;25076;-72
2023/02/03 06:17:47;;;;;;;8.98;5.13;;;7.80;99.90;;;;;;5038627;28;25148;-72
2023/02/03 06:20:18;;;;;;;12.23;5.53;;;7.80;99.90;;;;;;5056846;28;25064;-72
2023/02/03 06:22:45;;;;;;;13.15;6.47;;;7.70;99.90;;;;;;5056281;28;25083;-72
2023/02/03 06:25:13;;;;;;;9.45;4.75;;;7.70;99.90;;;;;;5056499;28;25058;-72
2023/02/03 06:27:41;;;;;;;12.98;6.25;;;7.70;99.90;;;;;;5056760;28;25049;-72
2023/02/03 06:30:10;;;;;;;12.82;6.07;;;7.70;99.90;;;;;;5056047;28;25084;-72
2023/02/03 06:32:37;;;;;;;12.55;5.75;;;7.60;99.90;;;;;;5056226;28;25133;-72
2023/02/03 06:35:04;;;;;;;12.93;6.38;;;7.50;99.90;;;;;;5056226;28;25128;-72
2023/02/03 06:37:32;;;;;;;18.00;8.10;;;7.50;99.90;;;;;;5056120;28;25075;-72
2023/02/03 06:39:59;;;;;;;17.67;7.85;;;7.40;99.90;;;;;;5038325;28;25085;-72
2023/02/03 06:42:26;;;;;;;20.40;8.77;;;7.30;99.90;;;;;;5056638;28;25114;-72
2023/02/03 06:44:54;;;;;;;15.55;7.32;;;7.30;99.90;;;;;;5056263;28;25101;-72
2023/02/03 06:47:21;;;;;;;9.20;5.78;;;7.20;99.90;;;;;;5056021;28;25143;-72
2023/02/03 06:49:51;;;;;;;13.77;7.20;;;7.20;99.90;;;;;;5056273;28;25086;-71
2023/02/03 06:52:18;;;;;;;13.63;8.15;;;7.20;99.90;;;;;;5056561;28;25072;-72
2023/02/03 06:54:45;;;;;;;12.88;7.63;;;7.20;99.90;;;;;;5038525;28;25129;-75
2023/02/03 06:57:12;;;;;;;9.20;6.03;;;7.20;99.90;;;;;;5037430;28;25050;-75
2023/02/03 06:59:40;;;;;;;16.50;6.68;;;7.20;99.90;;;;;;5055969;28;25036;-75
2023/02/03 07:02:08;;;;;;;12.35;7.07;;;7.20;99.90;;;;;;5055926;28;25080;-75
2023/02/03 07:04:37;;;;;;;16.42;6.88;;;7.20;99.90;;;;;;5056102;28;25103;-75
2023/02/03 07:07:05;;;;;;;8.52;5.80;;;7.20;99.90;;;;;;5056462;28;25098;-75
2023/02/03 07:09:32;;;;;;;11.25;6.80;;;7.10;99.90;;;;;;5038103;28;25098;-74
2023/02/03 07:12:00;;;;;;;14.57;7.95;;;7.20;99.90;;;;;;5059024;28;25141;-73
2023/02/03 07:14:29;;;;;;;13.32;6.70;;;7.20;99.90;;;;;;5041417;28;25104;-73
2023/02/03 07:16:57;;;;;;;13.60;7.25;;;7.20;99.90;;;;;;5059262;28;25118;-73
2023/02/03 07:19:25;;;;;;;11.13;7.32;;;7.10;99.90;;;;;;5059956;28;25063;-81
2023/02/03 07:21:52;;;;;;;16.67;8.05;;;7.10;99.90;;;;;;5041190;28;25082;-78
2023/02/03 07:24:20;;;;;;;13.27;6.10;;;7.10;99.90;;;;;;5059726;28;25077;-83
2023/02/03 07:26:47;;;;;;;9.18;5.57;;;7.10;99.90;;;;;;5041761;28;25062;-84
2023/02/03 07:29:14;;;;;;;8.98;5.88;;;7.10;99.90;;;;;;5058432;28;25117;-81
2023/02/03 07:31:42;;;;;;;10.43;5.75;;;7.10;99.90;;;;;;5059652;28;25080;-83
2023/02/03 07:34:10;;;;;;;14.07;5.57;;;7.10;99.90;;;;;;5040905;28;25067;-81
2023/02/03 07:36:37;;;;;;;10.75;6.88;;;7.10;99.90;;;;;;5059273;28;25080;-80
2023/02/03 07:39:04;;;;;;;10.40;6.25;;;7.10;99.90;;;;;;5041586;28;25095;-79
2023/02/03 07:41:32;;;;;;;10.02;6.07;;;7.10;99.90;;;;;;5041617;28;25124;-81
2023/02/03 07:44:00;;;;;;;11.43;5.65;;;7.10;99.90;;;;;;5041522;28;25108;-80
2023/02/03 07:46:28;;;;;;;9.98;4.95;;;7.10;99.90;;;;;;5059078;28;25063;-80
2023/02/03 07:48:55;;;;;;;13.95;6.70;;;7.20;99.90;;;;;;5041490;28;25057;-79
2023/02/03 07:51:23;;;;;;;11.13;6.00;;;7.10;99.90;;;;;;5041295;28;25073;-81
2023/02/03 07:53:50;;;;;;;6.18;4.18;;;7.10;99.90;;;;;;5059258;28;25050;-80
2023/02/03 07:56:19;;;;;;;10.93;5.85;;;7.10;99.90;;;;;;5059180;28;25064;-83
2023/02/03 07:58:46;;;;;;;8.77;4.85;;;7.20;99.90;;;;;;5041365;28;25076;-83
2023/02/03 08:01:16;;;;;;;10.50;4.80;;;7.20;99.90;;;;;;5058828;28;25078;-84
2023/02/03 08:03:43;;;;;;;9.13;4.72;;;7.10;99.90;;;;;;5041197;28;25102;-84
2023/02/03 08:06:10;;;;;;;12.60;5.90;;;7.20;99.90;;;;;;5041125;28;25078;-83
2023/02/03 08:08:37;;;;;;;7.10;3.95;;;7.20;99.90;;;;;;5059156;28;25106;-78
2023/02/03 08:11:05;;;;;;;8.88;5.47;;;7.20;99.90;;;;;;5040943;28;25129;-81
2023/02/03 08:13:32;;;;;;;10.50;5.15;;;7.20;99.90;;;;;;5058611;28;25080;-75
2023/02/03 08:16:00;;;;;;;7.78;4.30;;;7.20;99.90;;;;;;5058785;28;25122;-75
2023/02/03 08:18:28;;;;;;;7.65;4.97;;;7.20;99.90;;;;;;5058956;28;25133;-76
2023/02/03 08:20:55;;;;;;;9.25;5.47;;;7.20;99.90;;;;;;5058296;28;25082;-75
2023/02/03 08:23:22;;;;;;;10.27;5.20;;;7.20;99.90;;;;;;5058927;28;25106;-75
2023/02/03 08:25:53;;;;;;;8.35;4.25;;;7.20;99.90;;;;;;5058281;28;25052;-75
2023/02/03 08:28:21;;;;;;;5.80;3.67;;;7.20;99.90;;;;;;5058815;28;25140;-75
2023/02/03 08:30:48;;;;;;;7.65;4.40;;;7.30;99.90;;;;;;5040584;28;25102;-75
2023/02/03 08:33:15;;;;;;;5.85;3.85;;;7.30;99.90;;;;;;5040545;28;25102;-75
2023/02/03 08:35:47;;;;;;;6.45;4.50;;;7.30;99.90;;;;;;5058839;28;25066;-77
2023/02/03 08:38:20;;;;;;;7.38;4.53;;;7.30;99.90;;;;;;5058199;28;25133;-76
2023/02/03 08:40:48;;;;;;;10.23;4.90;;;7.30;99.90;;;;;;5058140;28;25057;-76
2023/02/03 08:43:15;;;;;;;6.40;3.67;;;7.30;99.90;;;;;;5040447;28;25153;-76
2023/02/03 08:45:42;;;;;;;10.07;4.00;;;7.30;99.90;;;;;;5040267;28;25101;-78
2023/02/03 08:48:10;;;;;;;7.53;4.15;;;7.30;99.90;;;;;;5040111;28;25145;-79
2023/02/03 08:50:41;;;;;;;12.02;4.45;;;7.30;99.90;;;;;;5039847;28;25098;-79
2023/02/03 08:53:09;;;;;;;10.45;3.90;;;7.30;99.90;;;;;;5040119;28;25074;-78
2023/02/03 08:55:40;;;;;;;8.82;4.85;;;7.40;99.90;;;;;;5057812;28;25061;-79
2023/02/03 08:58:08;;;;;;;7.75;3.38;;;7.40;99.90;;;;;;5039653;28;25052;-78
2023/02/03 09:00:35;;;;;;;8.02;3.47;;;7.40;99.90;;;;;;5040056;28;25073;-79
2023/02/03 09:03:03;;;;;;;7.35;3.85;;;7.40;99.90;;;;;;5058228;28;25090;-79
2023/02/03 09:05:32;;;;;;;5.65;2.80;;;7.40;99.90;;;;;;5057777;28;25109;-79
2023/02/03 09:07:59;;;;;;;8.32;3.83;;;7.40;99.90;;;;;;5058035;28;25056;-78
2023/02/03 09:10:27;;;;;;;7.32;3.33;;;7.50;99.90;;;;;;5039751;28;25061;-79
2023/02/03 09:12:55;;;;;;;8.05;3.70;;;7.50;99.90;;;;;;5057476;28;25062;-79
2023/02/03 09:15:23;;;;;;;6.40;3.65;;;7.50;99.90;;;;;;5039861;28;25051;-78
2023/02/03 09:17:56;;;;;;;6.70;4.35;;;7.50;99.90;;;;;;5057304;28;25096;-79
2023/02/03 09:20:24;;;;;;;10.60;4.75;;;7.50;99.90;;;;;;5057334;28;25087;-79
2023/02/03 09:22:53;;;;;;;11.50;5.32;;;7.60;99.90;;;;;;5039500;28;25074;-79
2023/02/03 09:25:20;;;;;;;7.93;5.05;;;7.60;99.90;;;;;;5057312;28;25071;-79
2023/02/03 09:27:48;;;;;;;8.27;4.45;;;7.60;99.90;;;;;;5057399;28;25075;-79
2023/02/03 09:30:15;;;;;;;15.43;6.38;;;7.60;99.90;;;;;;5057134;28;25122;-79
2023/02/03 09:32:47;;;;;;;8.68;4.60;;;7.70;99.90;;;;;;5056995;28;25078;-79
2023/02/03 09:35:15;;;;;;;10.23;4.55;;;7.70;99.90;;;;;;5039222;28;25105;-79
2023/02/03 09:37:42;;;;;;;10.77;5.40;;;7.70;99.90;;;;;;5039302;28;25126;-79
2023/02/03 09:40:25;;;;;;;16.15;6.63;;;7.70;99.90;;;;;;5040008;28;25129;-79
2023/02/03 09:43:22;;;;;;;10.98;6.03;;;7.70;99.90;;;;;;5057186;28;25108;-79
2023/02/03 09:45:50;;;;;;;9.80;4.90;;;7.70;99.90;;;;;;5038746;28;25066;-79
2023/02/03 09:48:27;;;;;;;12.20;5.53;;;7.70;99.90;;;;;;5056801;28;25123;-79
2023/02/03 09:50:54;;;;;;;12.32;5.32;;;7.70;99.90;;;;;;5038641;28;25069;-79
2023/02/03 09:53:42;;;;;;;7.80;4.53;;;7.70;99.90;;;;;;5039023;28;25060;-79
2023/02/03 09:56:25;;;;;;;9.63;5.45;;;7.70;99.90;;;;;;5056910;28;25114;-75
2023/02/03 09:58:52;;;;;;;11.25;5.75;;;7.60;99.90;;;;;;5057277;28;25066;-75
2023/02/03 10:01:21;;;;;;;10.13;5.07;;;7.60;99.90;;;;;;5057107;28;25079;-75
2023/02/03 10:04:04;;;;;;;11.90;5.15;;;7.60;99.90;;;;;;5057117;28;25068;-75
2023/02/03 10:06:42;;;;;;;7.43;3.85;;;7.60;99.90;;;;;;5056490;28;25074;-75
2023/02/03 10:09:23;;;;;;;10.98;5.78;;;7.60;99.90;;;;;;5056835;28;25124;-75
2023/02/03 10:12:31;;;;;;;12.35;4.85;;;7.60;99.90;;;;;;5056510;28;25051;-76
2023/02/03 10:15:27;;;;;;;6.53;3.60;;;7.60;99.90;;;;;;5056465;28;25077;-75
2023/02/03 10:18:05;;;;;;;7.13;4.43;;;7.60;99.90;;;;;;5038911;28;25104;-77
2023/02/03 10:20:57;;;;;;;6.40;4.10;;;7.60;99.90;;;;;;5038683;28;25065;-77
2023/02/03 10:23:35;;;;;;;8.98;3.63;;;7.60;99.90;;;;;;5055190;28;25048;-78
2023/02/03 10:26:07;;;;;;;8.05;5.13;;;7.60;99.90;;;;;;5038527;28;25063;-78
2023/02/03 10:28:54;;;;;;;9.13;4.20;;;7.70;99.90;;;;;;5056475;28;25061;-76
2023/02/03 10:31:26;;;;;;;8.93;4.35;;;7.70;99.90;;;;;;5056240;28;25069;-77
2023/02/03 10:34:13;;;;;;;6.32;3.92;;;7.70;99.90;;;;;;5038574;28;25120;-74
2023/02/03 10:37:27;;;;;;;7.40;3.53;;;7.70;99.90;;;;;;5056414;28;25122;-74
2023/02/03 10:39:57;;;;;;;5.00;3.15;;;7.70;99.90;;;;;;5047757;28;25079;-74
2023/02/03 10:42:24;;;;;;;9.52;4.07;;;7.80;99.90;;;;;;5056407;28;25077;-74
2023/02/03 10:44:59;;;;;;;5.97;3.22;;;7.80;99.90;;;;;;5058065;28;25094;-75
2023/02/03 10:47:54;;;;;;;5.88;3.50;;;7.80;99.90;;;;;;5042483;28;25059;-78
2023/02/03 10:50:30;;;;;;;5.95;3.30;;;7.80;99.90;;;;;;5042629;28;25125;-78
2023/02/03 10:53:32;;;;;;;8.43;2.95;;;7.80;99.90;;;;;;5042316;28;25071;-78
2023/02/03 10:56:06;;;;;;;3.97;2.55;;;7.80;99.90;;;;;;5059926;28;25116;-78
2023/02/03 10:58:36;;;;;;;5.25;2.40;;;7.80;99.90;;;;;;5042506;28;25103;-78
2023/02/03 11:01:12;;;;;;;7.53;3.20;;;7.80;99.90;;;;;;5042231;28;25088;-78
2023/02/03 11:03:43;;;;;;;3.67;2.50;;;7.80;99.90;;;;;;5041816;28;25052;-78
2023/02/03 11:06:14;;;;;;;4.65;2.60;;;7.80;99.90;;;;;;5042126;28;25107;-78
2023/02/03 11:08:44;;;;;;;4.43;2.83;;;7.80;99.90;;;;;;5041939;28;25085;-75
2023/02/03 11:11:23;;;;;;;3.10;2.22;;;7.80;99.90;;;;;;5059740;28;25121;-75
2023/02/03 11:14:17;;;;;;;4.32;2.28;;;7.80;99.90;;;;;;5060411;28;25137;-75
2023/02/03 11:16:46;;;;;;;4.43;2.05;;;7.90;99.90;;;;;;5041966;28;25061;-75
2023/02/03 11:19:19;;;;;;;7.70;2.03;;;7.90;99.90;;;;;;5060217;28;25065;-75
2023/02/03 11:21:51;;;;;;;8.30;1.75;;;7.90;99.90;;;;;;5059620;28;25087;-75
2023/02/03 11:24:30;;;;;;;4.75;1.80;;;7.90;99.90;;;;;;5060016;28;25079;-75
2023/02/03 11:27:14;;;;;;;13.85;2.75;;;7.90;99.90;;;;;;5059519;28;25075;-75
2023/02/03 11:29:50;;;;;;;9.35;2.20;;;7.90;99.90;;;;;;5067441;28;25104;-75
2023/02/03 11:32:40;;;;;;;9.27;1.75;;;7.80;99.90;;;;;;5078417;28;25132;-75
2023/02/03 11:35:26;;;;;;;8.15;2.33;;;7.80;99.90;;;;;;5078423;28;25062;-78
2023/02/03 11:37:55;;;;;;;7.72;1.15;;;7.80;99.90;;;;;;5078301;28;25096;-79
2023/02/03 11:40:32;;;;;;;7.00;1.20;;;7.80;99.90;;;;;;5078117;28;25096;-79
2023/02/03 11:43:04;;;;;;;7.22;1.35;;;7.90;99.90;;;;;;5079624;28;25133;-78
2023/02/03 11:45:40;;;;;;;5.70;1.05;;;8.00;99.90;;;;;;5079444;28;25077;-80
2023/02/03 11:48:20;;;;;;;9.95;2.28;;;7.90;99.90;;;;;;5076647;28;25113;-81
2023/02/03 11:50:53;;;;;;;11.95;1.80;;;8.00;99.90;;;;;;5078380;28;25062;-80
2023/02/03 11:53:46;;;;;;;4.93;0.40;;;8.10;99.90;;;;;;5078583;28;25098;-81
2023/02/03 11:56:38;;;;;;;9.10;2.08;;;8.10;99.90;;;;;;5077167;28;25049;-81
2023/02/03 11:59:12;;;;;;;14.43;3.17;;;8.20;99.90;;;;;;5079336;28;25098;-82
2023/02/03 12:01:57;;;;;;;6.82;2.60;;;8.30;99.90;;;;;;5079239;28;25110;-81
2023/02/03 12:04:40;;;;;;;16.65;2.72;;;8.40;99.90;;;;;;5077936;28;25131;-81
2023/02/03 12:07:24;;;;;;;8.30;1.77;;;8.50;99.90;;;;;;5079100;28;25057;-81
2023/02/03 12:10:10;;;;;;;10.60;1.58;;;8.70;99.90;;;;;;5077656;28;25126;-81
2023/02/03 12:13:11;;;;;;;8.88;1.55;;;8.70;99.90;;;;;;5079016;28;25064;-80
2023/02/03 12:15:56;;;;;;;9.68;1.45;;;8.90;99.90;;;;;;5078706;28;25126;-83
2023/02/03 12:18:48;;;;;;;15.88;3.42;;;8.90;99.90;;;;;;5078006;28;25127;-91
2023/02/03 12:21:35;;;;;;;15.75;2.00;;;9.00;99.90;;;;;;5077710;28;25101;-81
2023/02/03 12:24:38;;;;;;;9.70;2.55;;;9.00;99.90;;;;;;5077449;28;25073;-83
2023/02/03 12:27:12;;;;;;;10.30;1.63;;;9.00;99.90;;;;;;5077322;28;25050;-83
2023/02/03 12:29:58;;;;;;;16.65;2.60;;;9.00;99.90;;;;;;5064270;28;25075;-80
2023/02/03 12:32:46;;;;;;;14.32;2.72;;;9.10;99.90;;;;;;5058679;28;25077;-87
2023/02/03 12:35:23;;;;;;;14.95;2.92;;;9.10;99.90;;;;;;5040910;28;25067;-83
2023/02/03 12:38:04;;;;;;;11.30;3.22;;;9.20;99.90;;;;;;5058321;28;25075;-82
2023/02/03 12:40:54;;;;;;;18.27;2.72;;;9.30;99.90;;;;;;5040366;28;25054;-83
2023/02/03 12:43:26;;;;;;;14.07;2.55;;;9.30;99.90;;;;;;5058119;28;25153;-83
2023/02/03 12:46:04;;;;;;;14.52;1.85;;;9.40;99.90;;;;;;5058403;28;25112;-83
2023/02/03 12:49:13;;;;;;;13.50;2.60;;;9.40;99.90;;;;;;5039974;28;25058;-83
2023/02/03 12:51:51;;;;;;;16.50;3.63;;;9.50;99.90;;;;;;5040121;28;25105;-83
2023/02/03 12:54:28;;;;;;;10.43;2.50;;;9.50;99.90;;;;;;5040066;28;25123;-83
2023/02/03 12:57:21;;;;;;;16.83;2.30;;;9.60;99.90;;;;;;5040021;28;25072;-83
2023/02/03 12:59:59;;;;;;;13.65;3.03;;;9.60;99.90;;;;;;5057946;28;25099;-83
2023/02/03 13:02:30;;;;;;;17.50;3.63;;;9.60;99.90;;;;;;5040014;28;25105;-83
2023/02/03 13:05:19;;;;;;;14.40;3.90;;;9.50;99.90;;;;;;5057672;28;25107;-83
2023/02/03 13:08:24;;;;;;;19.45;4.35;;;9.60;99.90;;;;;;5038506;28;25100;-84
2023/02/03 13:11:19;;;;;;;17.00;2.78;;;9.60;99.90;;;;;;5057829;28;25128;-84
2023/02/03 13:13:56;;;;;;;22.08;4.35;;;9.60;99.90;;;;;;5039808;28;25071;-83
2023/02/03 13:16:36;;;;;;;18.35;3.05;;;9.50;99.90;;;;;;5040070;28;25091;-88
2023/02/03 13:19:12;;;;;;;11.35;2.92;;;9.50;99.90;;;;;;5040447;28;25092;-88
2023/02/03 13:21:40;;;;;;;;;;;9.30;99.90;;;;;;5058021;28;25056;-84
2023/02/03 13:24:12;;;;;;;17.50;3.78;;;9.20;99.90;;;;;;5057588;28;24137;-86